Flight Track Log - Related Links

Times and Time Zones

All times are in EDT time to prevent confusion due to time zone crossing. See the N161JK flight status page for this flight to view local times or setup timezone preferences in your user account.

Time Position Orientation Groundspeed Altitude Reporting Facility
EDT Latitude Longitude Course Direction KTS MPH feet Rate Location/Type
Sun 11:31:49 AM 32.9667 -96.8333 301° West 89 102 1,000  Level Dallas / Fort Worth TRACON
Sun 11:32:37 AM 32.9500 -96.8167 140° Southeast 113 130 1,600 776 Climbing Dallas / Fort Worth TRACON
Sun 11:33:14 AM 32.9286 -96.8331 213° Southwest 118 136 2,100 788 Climbing Fort Worth Center
Sun 11:34:16 AM 32.9308 -96.8731 274° West 122 140 2,900 774 Climbing Fort Worth Center
Sun 11:35:18 AM 32.9292 -96.9172 267° West 125 144 3,700 484 Climbing Fort Worth Center
Sun 11:36:20 AM 32.9253 -96.9628 264° West 138 159 3,900 97 Climbing Fort Worth Center
Sun 11:37:00 AM 33.1329 -97.1158 301° West  Level FlightAware Approximate
Sun 11:37:22 AM 32.9219 -97.0208 266° West 161 185 3,900  Level Fort Worth Center
Sun 11:38:24 AM 32.9189 -97.0717 266° West 164 189 3,900  Level Fort Worth Center
Sun 11:39:27 AM 32.9158 -97.1286 266° West 163 188 3,900  Level Fort Worth Center
Sun 11:40:29 AM 32.9131 -97.1811 266° West 155 178 3,900 48 Level Fort Worth Center
Sun 11:41:31 AM 32.9219 -97.2289 283° West 151 174 4,000 387 Climbing Fort Worth Center
Sun 11:42:33 AM 32.9378 -97.2761 292° West 145 167 4,700 726 Climbing Fort Worth Center
Sun 11:43:35 AM 32.9517 -97.3186 291° West 142 163 5,500 774 Climbing Fort Worth Center
Sun 11:44:37 AM 32.9658 -97.3614 292° West 141 162 6,300 768 Climbing Fort Worth Center
Sun 11:45:40 AM 32.9814 -97.4072 292° West 140 161 7,100 768 Climbing Fort Worth Center
Sun 11:46:42 AM 32.9967 -97.4550 291° West 140 161 7,900 435 Climbing Fort Worth Center
Sun 11:47:44 AM 33.0136 -97.5053 292° West 164 189 8,000  Climbing Fort Worth Center
Sun 11:48:46 AM 33.0342 -97.5653 292° West 179 206 7,900 -48 Descending Fort Worth Center
Sun 11:49:48 AM 33.0533 -97.6217 292° West 180 207 7,900  Level Fort Worth Center
Sun 11:50:50 AM 33.0733 -97.6825 291° West 181 208 7,900 48 Level Fort Worth Center
Sun 11:51:52 AM 33.0914 -97.7383 291° West 181 208 8,000 144 Climbing Fort Worth Center
Sun 11:52:55 AM 33.1092 -97.7958 290° West 177 204 8,200 432 Climbing Fort Worth Center
Sun 11:53:57 AM 33.1242 -97.8439 290° West 158 182 8,900 677 Climbing Fort Worth Center
Sun 11:54:59 AM 33.1408 -97.8964 291° West 157 181 9,600 677 Climbing Fort Worth Center
Sun 11:56:01 AM 33.1564 -97.9453 291° West 157 181 10,300 726 Climbing Fort Worth Center
Sun 11:57:03 AM 33.1744 -98.0000 292° West 161 185 11,100 726 Climbing Fort Worth Center
Sun 11:58:05 AM 33.1908 -98.0517 291° West 165 190 11,800 629 Climbing Fort Worth Center
Sun 11:59:07 AM 33.2067 -98.1036 290° West 165 190 12,400 672 Climbing Fort Worth Center
Sun 12:00:10 PM 33.2236 -98.1600 290° West 167 192 13,200 720 Climbing Fort Worth Center
Sun 12:01:12 PM 33.2464 -98.2078 300° West 166 191 13,900 677 Climbing Fort Worth Center
Sun 12:02:14 PM 33.2758 -98.2561 306° West 167 192 14,600 677 Climbing Fort Worth Center
Sun 12:03:16 PM 33.3047 -98.3028 307° West 177 204 15,300 677 Climbing Fort Worth Center
Sun 12:04:18 PM 33.3344 -98.3525 306° West 178 205 16,000 339 Climbing Fort Worth Center
Sun 12:05:20 PM 33.3678 -98.4064 307° West 189 217 16,000 -48 Level Fort Worth Center
Sun 12:06:22 PM 33.4039 -98.4639 307° West 204 235 15,900  Descending Fort Worth Center
Sun 12:07:25 PM 33.4383 -98.5236 305° West 206 237 16,000 48 Climbing Fort Worth Center
Sun 12:08:27 PM 33.4708 -98.5772 306° West 206 237 16,000  Level Fort Worth Center
Sun 12:09:29 PM 33.5050 -98.6339 306° West 204 235 16,000  Level Fort Worth Center
Sun 12:10:31 PM 33.5375 -98.6903 305° West 198 228 16,000  Level Fort Worth Center
Sun 12:11:33 PM 33.5706 -98.7453 306° West 195 224 16,000  Level Fort Worth Center
Sun 12:12:35 PM 33.6031 -98.8000 306° West 195 224 16,000 -48 Level Fort Worth Center
Sun 12:13:37 PM 33.6325 -98.8506 305° West 194 223 15,900 -48 Descending Fort Worth Center
Sun 12:14:39 PM 33.6647 -98.9047 306° West 193 222 15,900 48 Level Fort Worth Center
Sun 12:15:42 PM 33.6972 -98.9583 306° West 193 222 16,000 48 Climbing Fort Worth Center
Sun 12:16:44 PM 33.7300 -99.0133 306° West 193 222 16,000  Level Fort Worth Center
Sun 12:17:46 PM 33.7619 -99.0678 305° West 192 221 16,000  Level Fort Worth Center
Sun 12:18:48 PM 33.7939 -99.1217 306° West 191 220 16,000  Level Fort Worth Center
Sun 12:19:50 PM 33.8236 -99.1711 306° West 190 219 16,000  Level Fort Worth Center
Sun 12:20:52 PM 33.8553 -99.2258 305° West 190 219 16,000  Level Fort Worth Center
Sun 12:21:54 PM 33.8828 -99.2733 305° West 191 220 16,000  Level Fort Worth Center
Sun 12:22:57 PM 33.9194 -99.3342 306° West 190 219 16,000  Level Fort Worth Center
Sun 12:23:59 PM 33.9517 -99.3883 306° West 190 219 16,000  Level Fort Worth Center
Sun 12:25:01 PM 33.9797 -99.4372 305° West 190 219 16,000  Level Fort Worth Center
Sun 12:26:03 PM 34.0103 -99.4875 306° West 189 217 16,000  Level Fort Worth Center
Sun 12:27:05 PM 34.0400 -99.5397 304° West 189 217 16,000  Level Fort Worth Center
Sun 12:28:07 PM 34.0756 -99.6019 305° West 189 217 16,000  Level Fort Worth Center
Sun 12:29:10 PM 34.1061 -99.6533 306° West 189 217 16,000  Level Fort Worth Center
Sun 12:30:11 PM 34.1358 -99.7053 305° West 190 219 16,000  Level Fort Worth Center
Sun 12:31:14 PM 34.1669 -99.7575 306° West 191 220 16,000  Level Fort Worth Center
Sun 12:32:16 PM 34.1964 -99.8092 305° West 190 219 16,000 -48 Level Fort Worth Center
Sun 12:33:18 PM 34.2264 -99.8603 305° West 190 219 15,900  Descending Fort Worth Center
Sun 12:34:20 PM 34.2622 -99.9222 305° West 189 217 16,000  Climbing Fort Worth Center
Sun 12:35:22 PM 34.2914 -99.9744 304° West 189 217 15,900  Descending Fort Worth Center
Sun 12:36:24 PM 34.3219 -100.0256 306° West 189 217 16,000 48 Climbing Fort Worth Center
Sun 12:37:26 PM 34.3531 -100.0808 304° West 189 217 16,000  Level Fort Worth Center
Sun 12:38:28 PM 34.3833 -100.1322 306° West 189 217 16,000 48 Level Fort Worth Center
Sun 12:39:31 PM 34.4142 -100.1833 306° West 188 216 16,100 48 Climbing Fort Worth Center
Sun 12:40:33 PM 34.4439 -100.2381 303° West 191 220 16,100  Level Fort Worth Center
Sun 12:41:35 PM 34.4786 -100.3003 304° West 190 219 16,100  Level Fort Worth Center
Sun 12:42:37 PM 34.5089 -100.3517 306° West 189 217 16,100 -97 Level Fort Worth Center
Sun 12:43:39 PM 34.5394 -100.4031 306° West 189 217 15,900 -97 Descending Fort Worth Center
Sun 12:44:41 PM 34.5692 -100.4550 305° West 189 217 15,900 48 Level Fort Worth Center
Sun 12:45:43 PM 34.5981 -100.5072 304° West 189 217 16,000 48 Climbing Fort Worth Center
Sun 12:46:46 PM 34.6269 -100.5594 304° West 188 216 16,000  Level Fort Worth Center
Sun 12:47:48 PM 34.6611 -100.6203 304° West 183 211 16,000  Level Fort Worth Center
Sun 12:48:50 PM 34.6894 -100.6706 304° West 180 207 16,000 -48 Level Fort Worth Center
Sun 12:49:52 PM 34.7181 -100.7192 306° West 179 206 15,900  Descending Fort Worth Center
Sun 12:50:54 PM 34.7469 -100.7692 305° West 179 206 16,000 48 Climbing Fort Worth Center
Sun 12:51:56 PM 34.7786 -100.8258 304° West 179 206 16,000  Level Fort Worth Center
Sun 12:53:03 PM 34.8086 -100.8806 304° West 180 207 16,000  Level Albuquerque Center
Sun 12:54:05 PM 34.8308 -100.9361 296° West 181 208 16,000  Level Albuquerque Center
Sun 12:55:07 PM 34.8528 -100.9914 296° West 181 208 16,000  Level Albuquerque Center
Sun 12:56:09 PM 34.8756 -101.0467 297° West 181 208 16,000  Level Albuquerque Center
Sun 12:57:11 PM 34.9019 -101.1131 296° West 182 209 16,000  Level Albuquerque Center
Sun 12:58:14 PM 34.9228 -101.1697 294° West 182 209 16,000  Level Albuquerque Center
Sun 12:59:16 PM 34.9431 -101.2281 293° West 182 209 16,000  Level Albuquerque Center
Sun 01:01:16 PM 34.9842 -101.3419 294° West 183 211 16,000  Level Fort Worth Center
Sun 01:02:22 PM 35.0097 -101.4108 294° West 183 211 16,000  Level Albuquerque Center
Sun 01:03:24 PM 35.0314 -101.4672 295° West 183 211 16,000 -48 Level Albuquerque Center
Sun 01:04:26 PM 35.0536 -101.5253 295° West 184 212 15,900  Descending Albuquerque Center
Sun 01:05:28 PM 35.0761 -101.5831 295° West 185 213 16,000 48 Climbing Albuquerque Center
Sun 01:06:30 PM 35.0989 -101.6386 297° West 185 213 16,000  Level Albuquerque Center
Sun 01:07:33 PM 35.1211 -101.6975 295° West 185 213 16,000  Level Albuquerque Center
Sun 01:08:35 PM 35.1433 -101.7547 295° West 185 213 16,000 -48 Level Albuquerque Center
Sun 01:09:37 PM 35.1661 -101.8119 296° West 185 213 15,900  Descending Albuquerque Center
Sun 01:10:39 PM 35.1936 -101.8789 297° West 185 213 16,000 48 Climbing Albuquerque Center
Sun 01:11:41 PM 35.2175 -101.9347 289° West 185 213 16,000  Level Albuquerque Center
Sun 01:12:43 PM 35.2400 -101.9908 296° West 185 213 16,000  Level Albuquerque Center
Sun 01:13:00 PM 35.2307 -102.0120 289° West  Level FlightAware Approximate
Sun 01:13:45 PM 35.2631 -102.0456 297° West 185 213 16,000  Level Albuquerque Center
Sun 01:14:47 PM 35.2872 -102.1006 298° West 184 212 15,900  Descending Albuquerque Center
Sun 01:15:49 PM 35.3111 -102.1567 298° West 184 212 16,000 48 Climbing Albuquerque Center
Sun 01:16:52 PM 35.3406 -102.2228 299° West 185 213 16,000 -48 Level Albuquerque Center
Sun 01:17:54 PM 35.3650 -102.2775 299° West 185 213 15,900 -48 Descending Albuquerque Center
Sun 01:18:56 PM 35.3894 -102.3322 299° West 184 212 15,900 48 Level Albuquerque Center
Sun 01:19:58 PM 35.4144 -102.3869 299° West 184 212 16,000 48 Climbing Albuquerque Center
Sun 01:21:00 PM 35.4447 -102.4492 301° West 185 213 16,000  Level Albuquerque Center
Sun 01:22:02 PM 35.4639 -102.4958 297° West 185 213 16,000  Level Albuquerque Center
Sun 01:23:04 PM 35.4939 -102.5603 300° West 184 212 16,000  Level Albuquerque Center
Sun 01:24:06 PM 35.5208 -102.6175 300° West 184 212 16,000  Level Albuquerque Center
Sun 01:25:08 PM 35.5450 -102.6733 298° West 184 212 16,000  Level Albuquerque Center
Sun 01:26:11 PM 35.5689 -102.7242 300° West 184 212 16,000  Level Albuquerque Center
Sun 01:27:13 PM 35.5950 -102.7781 301° West 184 212 16,000  Level Albuquerque Center
Sun 01:28:15 PM 35.6189 -102.8325 298° West 184 212 16,000  Level Albuquerque Center
Sun 01:29:17 PM 35.6481 -102.8969 299° West 183 211 16,000  Level Albuquerque Center
Sun 01:30:19 PM 35.6708 -102.9450 300° West 182 209 16,000  Level Albuquerque Center
Sun 01:31:21 PM 35.7014 -103.0086 301° West 182 209 16,000  Level Albuquerque Center
Sun 01:32:23 PM 35.7264 -103.0633 299° West 182 209 16,000  Level Albuquerque Center
Sun 01:33:25 PM 35.7497 -103.1172 298° West 182 209 16,000  Level Albuquerque Center
Sun 01:34:28 PM 35.7733 -103.1708 299° West 181 208 16,000  Level Albuquerque Center
Sun 01:35:30 PM 35.7969 -103.2264 298° West 181 208 16,000  Level Albuquerque Center
Sun 01:36:32 PM 35.8208 -103.2806 299° West 181 208 16,000 48 Level Albuquerque Center
Sun 01:37:34 PM 35.8472 -103.3464 296° West 181 208 16,100 48 Climbing Albuquerque Center
Sun 01:38:36 PM 35.8694 -103.4017 296° West 181 208 16,100  Level Albuquerque Center
Sun 01:39:38 PM 35.8914 -103.4581 296° West 181 208 16,100  Level Albuquerque Center
Sun 01:40:40 PM 35.9131 -103.5125 296° West 180 207 16,100 -48 Level Albuquerque Center
Sun 01:41:42 PM 35.9353 -103.5672 297° West 179 206 16,000 -48 Descending Albuquerque Center
Sun 01:42:44 PM 35.9600 -103.6225 299° West 179 206 16,000 48 Level Albuquerque Center
Sun 01:43:47 PM 35.9983 -103.6686 316° Northwest 175 201 16,100 48 Climbing Albuquerque Center
Sun 01:44:49 PM 36.0344 -103.7125 316° Northwest 176 203 16,100  Level Albuquerque Center
Sun 01:45:51 PM 36.0719 -103.7544 318° Northwest 177 204 16,100  Level Albuquerque Center
Sun 01:46:53 PM 36.1081 -103.7950 318° Northwest 177 204 16,100  Level Albuquerque Center
Sun 01:47:55 PM 36.1450 -103.8336 320° Northwest 176 203 16,100 -97 Level Albuquerque Center
Sun 01:48:57 PM 36.1822 -103.8758 318° Northwest 177 204 15,900 -97 Descending Albuquerque Center
Sun 01:49:59 PM 36.2181 -103.9208 315° West 178 205 15,900 -194 Level Albuquerque Center
Sun 01:51:01 PM 36.2617 -103.9703 318° Northwest 179 206 15,500 -435 Descending Albuquerque Center
Sun 01:52:03 PM 36.3028 -104.0164 318° Northwest 192 221 15,000 -532 Descending Albuquerque Center
Sun 01:53:05 PM 36.3456 -104.0633 319° Northwest 197 227 14,400 -532 Descending Albuquerque Center
Sun 01:54:07 PM 36.3892 -104.1092 320° Northwest 199 229 13,900 -484 Descending Albuquerque Center
Sun 01:55:09 PM 36.4278 -104.1553 316° Northwest 199 229 13,400 -480 Descending Albuquerque Center
Sun 01:56:12 PM 36.4683 -104.1964 321° Northwest 192 221 12,900 -528 Descending Albuquerque Center
Sun 01:57:14 PM 36.5072 -104.2411 317° Northwest 190 219 12,300 -581 Descending Albuquerque Center
Sun 01:58:16 PM 36.5522 -104.2914 318° Northwest 189 217 11,700 -581 Descending Albuquerque Center
Sun 01:59:18 PM 36.5897 -104.3328 318° Northwest 187 215 11,100 -387 Descending Albuquerque Center
Sun 02:00:20 PM 36.6250 -104.3711 319° Northwest 177 204 10,900 -145 Descending Albuquerque Center
Sun 02:01:22 PM 36.6450 -104.4172 298° West 168 193 10,800  Descending Albuquerque Center
Sun 02:02:24 PM 36.6481 -104.4656 275° West 153 176 10,900 48 Climbing Albuquerque Center
Sun 02:03:26 PM 36.6458 -104.5178 267° West 152 175 10,900  Level Albuquerque Center
Sun 02:04:28 PM 36.6231 -104.5672 240° Southwest 160 184 10,900  Level Albuquerque Center
Sun 02:05:30 PM 36.5903 -104.6236 234° Southwest 166 191 10,900 -48 Level Albuquerque Center
Sun 02:06:32 PM 36.5550 -104.6667 224° Southwest 174 200 10,800 -339 Descending Albuquerque Center
Sun 02:07:34 PM 36.5139 -104.7039 216° Southwest 180 207 10,200 -532 Descending Albuquerque Center
Sun 02:08:36 PM 36.5086 -104.6617 99° East 176 203 9,700 -488 Descending Albuquerque Center
Sun 02:09:37 PM 36.5442 -104.6308 35° Northeast 165 190 9,200 -293 Descending Albuquerque Center
Sun 02:10:39 PM 36.5833 -104.5947 37° Northeast 161 185 9,100 -97 Descending Albuquerque Center

Login

Don't have an account? Register now (free) for customized features, flight alerts, and more!